Time;durP1;ratioP1;P1;durP2;ratioP2;P2;SDS_P1;SDS_P2;PMS_P1;PMS_P2;Temp;Humidity;BMP_temperature;BMP_pressure;BME280_temperature;BME280_humidity;BME280_pressure;Samples;Min_cycle;Max_cycle;Signal;HPM_P1;HPM_P2
2022/02/14 00:01:13;;;;;;;2.50;1.27;;;;;;;;;;5042738;28;20199;-68
2022/02/14 00:03:40;;;;;;;1.27;1.13;;;;;;;;;;5043991;28;20214;-68
2022/02/14 00:06:08;;;;;;;0.70;0.70;;;;;;;;;;5041664;28;20243;-68
2022/02/14 00:08:35;;;;;;;2.13;1.73;;;;;;;;;;5043074;28;20199;-68
2022/02/14 00:11:04;;;;;;;1.07;0.90;;;;;;;;;;5043499;28;21271;-69
2022/02/14 00:13:31;;;;;;;3.77;2.80;;;;;;;;;;5046097;28;20204;-67
2022/02/14 00:15:59;;;;;;;3.40;2.50;;;;;;;;;;5041707;28;20200;-68
2022/02/14 00:18:26;;;;;;;3.40;1.53;;;;;;;;;;5044722;28;20217;-71
2022/02/14 00:20:53;;;;;;;1.33;1.13;;;;;;;;;;5037323;28;20200;-69
2022/02/14 00:23:21;;;;;;;2.17;1.90;;;;;;;;;;5045592;28;20202;-70
2022/02/14 00:25:48;;;;;;;5.23;1.53;;;;;;;;;;5039459;28;20230;-70
2022/02/14 00:28:17;;;;;;;2.27;1.47;;;;;;;;;;5042146;28;20208;-69
2022/02/14 00:30:45;;;;;;;0.90;0.87;;;;;;;;;;5039292;28;20219;-73
2022/02/14 00:33:12;;;;;;;1.20;1.03;;;;;;;;;;5042967;28;20200;-69
2022/02/14 00:35:40;;;;;;;2.87;0.77;;;;;;;;;;5039994;28;20200;-69
2022/02/14 00:38:07;;;;;;;18.03;1.93;;;;;;;;;;5044574;28;20566;-69
2022/02/14 00:40:35;;;;;;;2.10;1.00;;;;;;;;;;5040704;28;20200;-70
2022/02/14 00:43:04;;;;;;;1.37;1.33;;;;;;;;;;5047039;28;20195;-69
2022/02/14 00:45:33;;;;;;;2.00;1.17;;;;;;;;;;5043452;28;20223;-69
2022/02/14 00:48:00;;;;;;;15.10;0.53;;;;;;;;;;5044610;28;20191;-68
2022/02/14 00:50:28;;;;;;;2.30;1.23;;;;;;;;;;5044885;28;20207;-68
2022/02/14 00:52:56;;;;;;;0.50;0.50;;;;;;;;;;5041586;28;20191;-69
2022/02/14 00:55:23;;;;;;;1.70;1.57;;;;;;;;;;5037434;28;20210;-68
2022/02/14 00:57:51;;;;;;;0.00;0.00;;;;;;;;;;5043586;28;20678;-69
2022/02/14 01:00:19;;;;;;;0.27;0.27;;;;;;;;;;5040676;28;20195;-68
2022/02/14 01:02:48;;;;;;;0.50;0.50;;;;;;;;;;5041404;28;20207;-70
2022/02/14 01:05:15;;;;;;;0.50;0.50;;;;;;;;;;5042431;28;20242;-72
2022/02/14 01:07:43;;;;;;;2.23;0.90;;;;;;;;;;5044611;28;20724;-72
2022/02/14 01:10:11;;;;;;;0.50;0.50;;;;;;;;;;5045506;28;20195;-69
2022/02/14 01:12:38;;;;;;;0.43;0.43;;;;;;;;;;5043081;28;20707;-68
2022/02/14 01:15:07;;;;;;;4.57;0.93;;;;;;;;;;5051753;28;20206;-68
2022/02/14 01:17:35;;;;;;;0.00;0.00;;;;;;;;;;5038964;28;20206;-69
2022/02/14 01:20:04;;;;;;;1.40;0.93;;;;;;;;;;5040512;28;20203;-71
2022/02/14 01:22:31;;;;;;;0.83;0.83;;;;;;;;;;5039635;28;22698;-68
2022/02/14 01:24:58;;;;;;;5.73;1.27;;;;;;;;;;5039996;28;20195;-69
2022/02/14 01:27:26;;;;;;;1.03;0.93;;;;;;;;;;5042411;28;20194;-70
2022/02/14 01:29:53;;;;;;;0.30;0.30;;;;;;;;;;5038488;28;20200;-70
2022/02/14 01:32:22;;;;;;;0.93;0.60;;;;;;;;;;5036642;28;20778;-72
2022/02/14 01:34:50;;;;;;;0.63;0.63;;;;;;;;;;5044366;28;20737;-68
2022/02/14 01:37:19;;;;;;;0.80;0.80;;;;;;;;;;5042728;28;20209;-69
2022/02/14 01:39:46;;;;;;;1.77;0.87;;;;;;;;;;5043544;28;20198;-69
2022/02/14 01:42:14;;;;;;;3.37;2.77;;;;;;;;;;5040329;28;20206;-69
2022/02/14 01:44:43;;;;;;;1.07;0.97;;;;;;;;;;5039741;28;20198;-70
2022/02/14 01:47:12;;;;;;;1.03;0.63;;;;;;;;;;5038582;28;20692;-68
2022/02/14 01:49:39;;;;;;;1.30;0.57;;;;;;;;;;5039169;28;20207;-69
2022/02/14 01:52:07;;;;;;;1.43;1.33;;;;;;;;;;5045292;28;20201;-71
2022/02/14 01:54:36;;;;;;;1.07;1.00;;;;;;;;;;5045044;28;20203;-72
2022/02/14 01:57:03;;;;;;;0.73;0.30;;;;;;;;;;5042359;28;20203;-70
2022/02/14 01:59:31;;;;;;;1.80;1.03;;;;;;;;;;5040395;28;20210;-70
2022/02/14 02:01:58;;;;;;;1.00;0.73;;;;;;;;;;5044327;28;20203;-68
2022/02/14 02:04:26;;;;;;;2.73;1.07;;;;;;;;;;5042574;28;20698;-69
2022/02/14 02:06:54;;;;;;;2.67;1.57;;;;;;;;;;5044048;28;20621;-69
2022/02/14 02:09:21;;;;;;;4.83;0.57;;;;;;;;;;5042810;28;20196;-70
2022/02/14 02:14:35;;;;;;;0.57;0.53;;;;;;;;;;5040606;28;20610;-69
2022/02/14 02:17:02;;;;;;;1.40;1.30;;;;;;;;;;5039290;28;20679;-70
2022/02/14 02:19:29;;;;;;;0.37;0.37;;;;;;;;;;5042392;28;20222;-69
2022/02/14 02:21:57;;;;;;;0.33;0.33;;;;;;;;;;5040839;28;20923;-71
2022/02/14 02:24:25;;;;;;;1.00;0.90;;;;;;;;;;5038451;28;20208;-69
2022/02/14 02:27:01;;;;;;;1.27;1.17;;;;;;;;;;5039359;28;20222;-70
2022/02/14 02:29:28;;;;;;;0.90;0.53;;;;;;;;;;5047343;28;20200;-69
2022/02/14 02:31:56;;;;;;;0.67;0.33;;;;;;;;;;5042928;28;20844;-69
2022/02/14 02:34:24;;;;;;;2.80;0.90;;;;;;;;;;5041411;28;20202;-70
2022/02/14 02:36:53;;;;;;;0.77;0.63;;;;;;;;;;5037429;28;20253;-70
2022/02/14 02:39:21;;;;;;;2.40;0.77;;;;;;;;;;5045893;28;20382;-68
2022/02/14 02:41:48;;;;;;;0.53;0.53;;;;;;;;;;5041977;28;20200;-67
2022/02/14 02:44:18;;;;;;;2.47;1.00;;;;;;;;;;5046836;28;20211;-68
2022/02/14 02:46:46;;;;;;;0.70;0.70;;;;;;;;;;5040795;28;20218;-69
2022/02/14 02:49:14;;;;;;;0.50;0.50;;;;;;;;;;5044702;28;20190;-68
2022/02/14 02:51:42;;;;;;;1.27;0.83;;;;;;;;;;5043150;28;20208;-69
2022/02/14 02:54:10;;;;;;;6.07;1.20;;;;;;;;;;5043946;28;20196;-69
2022/02/14 02:56:38;;;;;;;1.20;0.73;;;;;;;;;;5047240;28;20200;-69
2022/02/14 02:59:06;;;;;;;0.67;0.50;;;;;;;;;;5048606;28;20206;-68
2022/02/14 03:01:35;;;;;;;2.33;1.00;;;;;;;;;;5053132;28;20199;-71
2022/02/14 03:04:03;;;;;;;0.93;0.77;;;;;;;;;;5045348;28;20207;-72
2022/02/14 03:06:30;;;;;;;1.33;1.17;;;;;;;;;;5050057;28;20249;-69
2022/02/14 03:08:57;;;;;;;1.47;1.10;;;;;;;;;;5047453;28;20206;-67
2022/02/14 03:11:25;;;;;;;0.70;0.70;;;;;;;;;;5046153;28;20565;-66
2022/02/14 03:13:53;;;;;;;1.70;1.07;;;;;;;;;;5047173;28;20199;-69
2022/02/14 03:16:21;;;;;;;0.63;0.63;;;;;;;;;;5046425;28;20550;-69
2022/02/14 03:18:50;;;;;;;0.93;0.67;;;;;;;;;;5049128;28;20210;-67
2022/02/14 03:21:19;;;;;;;0.87;0.50;;;;;;;;;;5045772;28;20211;-68
2022/02/14 03:23:47;;;;;;;1.17;0.43;;;;;;;;;;5048785;28;20199;-70
2022/02/14 03:26:16;;;;;;;2.50;1.57;;;;;;;;;;5049428;28;20242;-70
2022/02/14 03:28:43;;;;;;;1.50;0.80;;;;;;;;;;5056972;28;20276;-68
2022/02/14 03:31:11;;;;;;;5.10;1.93;;;;;;;;;;5052796;28;20195;-69
2022/02/14 03:33:38;;;;;;;0.37;0.37;;;;;;;;;;5054176;28;20196;-69
2022/02/14 03:36:07;;;;;;;1.33;1.10;;;;;;;;;;5057244;28;20207;-69
2022/02/14 03:38:35;;;;;;;1.57;0.90;;;;;;;;;;5049675;28;20223;-68
2022/02/14 03:41:02;;;;;;;2.10;1.43;;;;;;;;;;5051479;28;20199;-68
2022/02/14 03:43:29;;;;;;;2.73;1.27;;;;;;;;;;5056255;28;20204;-69
2022/02/14 03:45:57;;;;;;;0.87;0.53;;;;;;;;;;5057019;28;20223;-68
2022/02/14 03:48:25;;;;;;;7.37;1.20;;;;;;;;;;5052786;28;20195;-69
2022/02/14 03:50:53;;;;;;;0.87;0.83;;;;;;;;;;5049381;28;20223;-67
2022/02/14 03:53:22;;;;;;;8.80;1.00;;;;;;;;;;5051012;28;20609;-68
2022/02/14 03:55:49;;;;;;;0.00;0.00;;;;;;;;;;5051177;28;20208;-71
2022/02/14 03:58:16;;;;;;;0.43;0.33;;;;;;;;;;5053131;28;20206;-68
2022/02/14 04:00:44;;;;;;;0.70;0.53;;;;;;;;;;5055276;28;20196;-68
2022/02/14 04:03:11;;;;;;;0.43;0.43;;;;;;;;;;5050004;28;20207;-68
2022/02/14 04:05:39;;;;;;;1.13;0.90;;;;;;;;;;5053416;28;20235;-69
2022/02/14 04:08:07;;;;;;;2.97;1.63;;;;;;;;;;5052963;28;20234;-68
2022/02/14 04:10:36;;;;;;;1.30;0.97;;;;;;;;;;5054391;28;20231;-71
2022/02/14 04:13:03;;;;;;;1.47;1.37;;;;;;;;;;5055801;28;20196;-68
2022/02/14 04:15:30;;;;;;;0.93;0.77;;;;;;;;;;5052510;28;20211;-68
2022/02/14 04:17:58;;;;;;;0.60;0.43;;;;;;;;;;5050045;28;20558;-68
2022/02/14 04:20:25;;;;;;;0.50;0.50;;;;;;;;;;5051165;28;20540;-69
2022/02/14 04:22:53;;;;;;;0.67;0.67;;;;;;;;;;5055646;28;20694;-69
2022/02/14 04:25:20;;;;;;;1.70;0.93;;;;;;;;;;5057347;28;20675;-69
2022/02/14 04:27:49;;;;;;;1.70;0.40;;;;;;;;;;5055040;28;20235;-68
2022/02/14 04:30:16;;;;;;;1.37;1.07;;;;;;;;;;5048431;28;20667;-68
2022/02/14 04:32:44;;;;;;;0.60;0.60;;;;;;;;;;5051346;28;20195;-68
2022/02/14 04:35:11;;;;;;;2.13;1.20;;;;;;;;;;5056249;28;20671;-68
2022/02/14 04:37:39;;;;;;;3.70;1.70;;;;;;;;;;5054669;28;20206;-69
2022/02/14 04:40:07;;;;;;;3.87;1.87;;;;;;;;;;5057324;28;20196;-69
2022/02/14 04:42:34;;;;;;;2.17;1.33;;;;;;;;;;5055817;28;20206;-68
2022/02/14 04:45:03;;;;;;;3.60;1.70;;;;;;;;;;5055458;28;20563;-69
2022/02/14 04:47:30;;;;;;;0.67;0.53;;;;;;;;;;5050534;28;20223;-66
2022/02/14 04:49:58;;;;;;;5.20;0.80;;;;;;;;;;5051204;28;20203;-69
2022/02/14 04:52:25;;;;;;;1.77;1.53;;;;;;;;;;5058424;28;20214;-70
2022/02/14 04:54:52;;;;;;;0.90;0.87;;;;;;;;;;5054497;28;20202;-69
2022/02/14 04:57:19;;;;;;;1.43;1.33;;;;;;;;;;5053466;28;20196;-68
2022/02/14 04:59:47;;;;;;;0.23;0.23;;;;;;;;;;5053334;28;20687;-69
2022/02/14 05:02:16;;;;;;;1.43;0.83;;;;;;;;;;5052669;28;20198;-68
2022/02/14 05:04:43;;;;;;;2.73;0.83;;;;;;;;;;5051333;28;20664;-72
2022/02/14 05:07:10;;;;;;;0.73;0.73;;;;;;;;;;5049459;28;20569;-69
2022/02/14 05:09:38;;;;;;;0.60;0.20;;;;;;;;;;5054803;28;20199;-70
2022/02/14 05:12:05;;;;;;;0.00;0.00;;;;;;;;;;5057116;28;20244;-69
2022/02/14 05:14:33;;;;;;;2.63;0.40;;;;;;;;;;5056027;28;20203;-69
2022/02/14 05:17:00;;;;;;;1.80;1.70;;;;;;;;;;5053783;28;20203;-69
2022/02/14 05:19:29;;;;;;;0.03;0.03;;;;;;;;;;5055614;28;20701;-68
2022/02/14 05:21:56;;;;;;;3.27;0.27;;;;;;;;;;5049202;28;20581;-72
2022/02/14 05:24:23;;;;;;;0.20;0.17;;;;;;;;;;5057944;28;22162;-70
2022/02/14 05:26:51;;;;;;;0.13;0.13;;;;;;;;;;5046097;28;20696;-70
2022/02/14 05:29:18;;;;;;;2.80;2.27;;;;;;;;;;5050533;28;20549;-70
2022/02/14 05:31:45;;;;;;;0.00;0.00;;;;;;;;;;5046562;28;21594;-74
2022/02/14 05:34:13;;;;;;;0.40;0.40;;;;;;;;;;5051379;28;20199;-69
2022/02/14 05:36:42;;;;;;;0.43;0.43;;;;;;;;;;5044512;28;20589;-69
2022/02/14 05:39:10;;;;;;;0.10;0.10;;;;;;;;;;5045253;28;20227;-69
2022/02/14 05:41:37;;;;;;;0.13;0.13;;;;;;;;;;5046327;28;20679;-69
2022/02/14 05:44:05;;;;;;;0.30;0.07;;;;;;;;;;5044524;28;20563;-70
2022/02/14 05:46:32;;;;;;;0.00;0.00;;;;;;;;;;5045347;28;20227;-71
2022/02/14 05:49:00;;;;;;;0.00;0.00;;;;;;;;;;5043895;28;20265;-70
2022/02/14 05:51:27;;;;;;;0.30;0.30;;;;;;;;;;5045658;28;20281;-72
2022/02/14 05:53:56;;;;;;;0.00;0.00;;;;;;;;;;5042548;28;20202;-72
2022/02/14 05:56:23;;;;;;;0.00;0.00;;;;;;;;;;5046008;28;20191;-70
2022/02/14 05:58:50;;;;;;;0.10;0.00;;;;;;;;;;5040205;28;20565;-72
2022/02/14 06:01:18;;;;;;;0.20;0.20;;;;;;;;;;5047946;28;20201;-71
2022/02/14 06:03:45;;;;;;;0.30;0.30;;;;;;;;;;5044201;28;20195;-74
2022/02/14 06:06:12;;;;;;;0.00;0.00;;;;;;;;;;5044822;28;20231;-73
2022/02/14 06:08:40;;;;;;;0.00;0.00;;;;;;;;;;5042168;28;20208;-71
2022/02/14 06:11:08;;;;;;;0.00;0.00;;;;;;;;;;5043633;28;20205;-69
2022/02/14 06:13:36;;;;;;;0.00;0.00;;;;;;;;;;5040477;28;20200;-68
2022/02/14 06:16:03;;;;;;;0.00;0.00;;;;;;;;;;5041434;28;20676;-71
2022/02/14 06:18:30;;;;;;;0.10;0.00;;;;;;;;;;5050066;28;20217;-69
2022/02/14 06:20:58;;;;;;;0.10;0.10;;;;;;;;;;5050204;28;20210;-68
2022/02/14 06:23:27;;;;;;;0.00;0.00;;;;;;;;;;5046533;28;20296;-70
2022/02/14 06:25:54;;;;;;;3.03;0.90;;;;;;;;;;5049311;28;20214;-70
2022/02/14 06:28:23;;;;;;;0.10;0.10;;;;;;;;;;5048841;28;20223;-72
2022/02/14 06:30:50;;;;;;;0.10;0.10;;;;;;;;;;5049416;28;20195;-71
2022/02/14 06:33:17;;;;;;;0.00;0.00;;;;;;;;;;5048461;28;20214;-69
2022/02/14 06:35:46;;;;;;;0.00;0.00;;;;;;;;;;5046805;28;20571;-71
2022/02/14 06:38:13;;;;;;;0.00;0.00;;;;;;;;;;5050529;28;20211;-71
2022/02/14 06:40:40;;;;;;;0.30;0.20;;;;;;;;;;5047548;28;20195;-70
2022/02/14 06:43:08;;;;;;;0.00;0.00;;;;;;;;;;5046980;28;20794;-70
2022/02/14 06:45:36;;;;;;;0.00;0.00;;;;;;;;;;5047219;28;20200;-69
2022/02/14 06:48:04;;;;;;;0.00;0.00;;;;;;;;;;5045156;28;20215;-70
2022/02/14 06:50:31;;;;;;;0.00;0.00;;;;;;;;;;5047525;28;20203;-69
2022/02/14 06:52:59;;;;;;;0.07;0.00;;;;;;;;;;5048038;28;20203;-69
2022/02/14 06:55:26;;;;;;;0.07;0.03;;;;;;;;;;5044823;28;20202;-71
2022/02/14 06:57:54;;;;;;;0.27;0.27;;;;;;;;;;5050520;28;20996;-70
2022/02/14 07:00:21;;;;;;;0.00;0.00;;;;;;;;;;5046201;28;20204;-70
2022/02/14 07:02:50;;;;;;;2.47;0.43;;;;;;;;;;5054368;28;20202;-69
2022/02/14 07:05:21;;;;;;;0.37;0.37;;;;;;;;;;5067249;28;20227;-68
2022/02/14 07:07:49;;;;;;;0.97;0.10;;;;;;;;;;5051120;28;20234;-70
2022/02/14 07:10:17;;;;;;;0.20;0.20;;;;;;;;;;5054842;28;20195;-68
2022/02/14 07:12:45;;;;;;;0.00;0.00;;;;;;;;;;5058046;28;20664;-68
2022/02/14 07:15:13;;;;;;;0.10;0.10;;;;;;;;;;5051252;28;20199;-69
2022/02/14 07:17:41;;;;;;;0.00;0.00;;;;;;;;;;5051758;28;20303;-68
2022/02/14 07:20:10;;;;;;;0.10;0.10;;;;;;;;;;5048104;28;21919;-69
2022/02/14 07:22:38;;;;;;;0.00;0.00;;;;;;;;;;5045083;28;20207;-70
2022/02/14 07:25:05;;;;;;;0.00;0.00;;;;;;;;;;5047291;28;20196;-69
2022/02/14 07:27:34;;;;;;;0.00;0.00;;;;;;;;;;5051855;28;20223;-69
2022/02/14 07:30:02;;;;;;;0.50;0.27;;;;;;;;;;5050337;28;20200;-71
2022/02/14 07:32:30;;;;;;;0.37;0.37;;;;;;;;;;5053469;28;20442;-69
2022/02/14 07:34:57;;;;;;;0.43;0.40;;;;;;;;;;5053044;28;20195;-69
2022/02/14 07:37:27;;;;;;;0.20;0.20;;;;;;;;;;5050704;28;20290;-69
2022/02/14 07:39:54;;;;;;;0.10;0.10;;;;;;;;;;5049835;28;20564;-67
2022/02/14 07:42:21;;;;;;;1.60;0.30;;;;;;;;;;5054894;28;20211;-68
2022/02/14 07:44:49;;;;;;;0.10;0.10;;;;;;;;;;5052075;28;20245;-70
2022/02/14 07:47:17;;;;;;;0.07;0.07;;;;;;;;;;5050631;28;20711;-69
2022/02/14 07:49:45;;;;;;;10.43;2.23;;;;;;;;;;5052546;28;20206;-68
2022/02/14 07:52:13;;;;;;;0.20;0.20;;;;;;;;;;5048098;28;20253;-69
2022/02/14 07:54:42;;;;;;;0.03;0.03;;;;;;;;;;5049424;28;20196;-69
2022/02/14 07:57:09;;;;;;;0.20;0.10;;;;;;;;;;5051623;28;20199;-72
2022/02/14 07:59:36;;;;;;;0.00;0.00;;;;;;;;;;5060306;28;20568;-69
2022/02/14 08:02:04;;;;;;;0.10;0.10;;;;;;;;;;5057892;28;20258;-68
2022/02/14 08:04:31;;;;;;;0.30;0.30;;;;;;;;;;5067282;28;20696;-70
2022/02/14 08:06:58;;;;;;;0.10;0.10;;;;;;;;;;5059026;28;20234;-68
2022/02/14 08:09:26;;;;;;;0.40;0.40;;;;;;;;;;5065716;28;20202;-67
2022/02/14 08:11:54;;;;;;;0.03;0.03;;;;;;;;;;5057893;28;20225;-68
2022/02/14 08:14:22;;;;;;;0.47;0.20;;;;;;;;;;5065991;28;20210;-68
2022/02/14 08:16:49;;;;;;;0.40;0.40;;;;;;;;;;5056127;28;20199;-69
2022/02/14 08:19:17;;;;;;;0.00;0.00;;;;;;;;;;5051294;28;20217;-68
2022/02/14 08:21:44;;;;;;;0.20;0.20;;;;;;;;;;5057422;28;20199;-69
2022/02/14 08:24:11;;;;;;;0.00;0.00;;;;;;;;;;5056524;28;20202;-69
2022/02/14 08:26:39;;;;;;;1.13;0.97;;;;;;;;;;5054891;28;20211;-70
2022/02/14 08:29:08;;;;;;;1.10;0.60;;;;;;;;;;5057083;28;20227;-67
2022/02/14 08:31:37;;;;;;;0.40;0.40;;;;;;;;;;5054125;28;20203;-68
2022/02/14 08:34:04;;;;;;;0.10;0.10;;;;;;;;;;5051908;28;20206;-71
2022/02/14 08:36:31;;;;;;;1.47;0.33;;;;;;;;;;5050619;28;20203;-69
2022/02/14 08:38:59;;;;;;;0.60;0.20;;;;;;;;;;5050654;28;20212;-67
2022/02/14 08:41:27;;;;;;;0.93;0.93;;;;;;;;;;5047169;28;20203;-68
2022/02/14 08:43:54;;;;;;;7.57;0.43;;;;;;;;;;5047409;28;20191;-71
2022/02/14 08:46:24;;;;;;;0.00;0.00;;;;;;;;;;5045052;28;20194;-69
2022/02/14 08:48:52;;;;;;;0.00;0.00;;;;;;;;;;5041979;28;20720;-69
2022/02/14 08:51:20;;;;;;;0.00;0.00;;;;;;;;;;5043451;28;20904;-68
2022/02/14 08:53:47;;;;;;;0.03;0.00;;;;;;;;;;5042467;28;20202;-70
2022/02/14 08:56:15;;;;;;;2.47;0.30;;;;;;;;;;5042805;28;20211;-69
2022/02/14 08:58:42;;;;;;;0.10;0.10;;;;;;;;;;5047759;28;20199;-68
2022/02/14 09:01:11;;;;;;;0.40;0.40;;;;;;;;;;5046670;28;20203;-69
2022/02/14 09:03:40;;;;;;;5.23;0.63;;;;;;;;;;5049678;28;20683;-68
2022/02/14 09:06:09;;;;;;;0.00;0.00;;;;;;;;;;5044221;28;20219;-71
2022/02/14 09:08:37;;;;;;;0.10;0.10;;;;;;;;;;5047071;28;20679;-68
2022/02/14 09:11:06;;;;;;;0.00;0.00;;;;;;;;;;5043839;28;20207;-69
2022/02/14 09:13:36;;;;;;;1.57;0.87;;;;;;;;;;5058369;28;20207;-69
2022/02/14 09:16:06;;;;;;;2.00;1.50;;;;;;;;;;5056601;28;20302;-68
2022/02/14 09:18:40;;;;;;;2.20;0.90;;;;;;;;;;5066618;28;20704;-69
2022/02/14 09:21:10;;;;;;;0.83;0.43;;;;;;;;;;5068197;28;20207;-67
2022/02/14 09:23:37;;;;;;;0.30;0.20;;;;;;;;;;5063846;28;20195;-69
2022/02/14 09:26:04;;;;;;;0.10;0.10;;;;;;;;;;5055990;28;20564;-68
2022/02/14 09:28:32;;;;;;;0.50;0.50;;;;;;;;;;5055930;28;20238;-68
2022/02/14 09:30:59;;;;;;;2.73;0.73;;;;;;;;;;5051277;28;20211;-68
2022/02/14 09:33:26;;;;;;;0.00;0.00;;;;;;;;;;5052352;28;20698;-70
2022/02/14 09:35:54;;;;;;;0.97;0.43;;;;;;;;;;5058444;28;20591;-67
2022/02/14 09:38:26;;;;;;;2.63;2.47;;;;;;;;;;5053345;28;20589;-68
2022/02/14 09:40:54;;;;;;;13.87;1.23;;;;;;;;;;5056342;28;20199;-70
2022/02/14 09:43:22;;;;;;;0.30;0.10;;;;;;;;;;5053781;28;20604;-68
2022/02/14 09:45:49;;;;;;;2.33;0.90;;;;;;;;;;5055523;28;20231;-69
2022/02/14 09:48:18;;;;;;;2.00;1.00;;;;;;;;;;5054721;28;20715;-68
2022/02/14 09:50:46;;;;;;;0.47;0.37;;;;;;;;;;5048806;28;20774;-69
2022/02/14 09:53:15;;;;;;;0.87;0.80;;;;;;;;;;5053724;28;20222;-68
2022/02/14 09:55:44;;;;;;;0.73;0.60;;;;;;;;;;5057329;28;20211;-68
2022/02/14 09:58:12;;;;;;;5.53;0.73;;;;;;;;;;5059940;28;20210;-68
2022/02/14 10:00:39;;;;;;;0.53;0.53;;;;;;;;;;5064542;28;20206;-67
2022/02/14 10:03:11;;;;;;;2.97;1.23;;;;;;;;;;5064437;28;20702;-69
2022/02/14 10:05:46;;;;;;;9.37;1.23;;;;;;;;;;5068792;28;20231;-68
2022/02/14 10:08:20;;;;;;;1.03;0.70;;;;;;;;;;5065727;28;20718;-68
2022/02/14 10:10:49;;;;;;;1.33;0.50;;;;;;;;;;5068055;28;20583;-67
2022/02/14 10:13:29;;;;;;;0.30;0.30;;;;;;;;;;5065326;28;20206;-68
2022/02/14 10:15:57;;;;;;;0.97;0.70;;;;;;;;;;5074198;28;20195;-66
2022/02/14 10:18:28;;;;;;;1.90;0.30;;;;;;;;;;5077336;28;20254;-67
2022/02/14 10:21:10;;;;;;;0.07;0.07;;;;;;;;;;5056174;28;20198;-67
2022/02/14 10:23:37;;;;;;;2.43;0.37;;;;;;;;;;5061912;28;20211;-69
2022/02/14 10:26:07;;;;;;;0.40;0.20;;;;;;;;;;5062630;28;20586;-67
2022/02/14 10:28:34;;;;;;;0.20;0.20;;;;;;;;;;5062570;28;20229;-69
2022/02/14 10:31:05;;;;;;;0.20;0.20;;;;;;;;;;5075561;28;20210;-69
2022/02/14 10:33:48;;;;;;;1.20;0.80;;;;;;;;;;5065516;28;20211;-69
2022/02/14 10:36:24;;;;;;;0.13;0.10;;;;;;;;;;5056846;28;20210;-67
2022/02/14 10:38:51;;;;;;;0.00;0.00;;;;;;;;;;5056764;28;20206;-67
2022/02/14 10:41:20;;;;;;;1.40;0.73;;;;;;;;;;5057850;28;20251;-66
2022/02/14 10:43:47;;;;;;;1.73;0.53;;;;;;;;;;5058973;28;20206;-69
2022/02/14 10:46:20;;;;;;;0.40;0.40;;;;;;;;;;5060749;28;20198;-67
2022/02/14 10:48:47;;;;;;;0.33;0.33;;;;;;;;;;5060590;28;20255;-68
2022/02/14 10:51:18;;;;;;;0.20;0.20;;;;;;;;;;5058964;28;20222;-66
2022/02/14 10:53:46;;;;;;;0.33;0.13;;;;;;;;;;5061260;28;20314;-67
2022/02/14 10:56:14;;;;;;;0.03;0.03;;;;;;;;;;5056388;28;20210;-67
2022/02/14 10:58:43;;;;;;;0.97;0.40;;;;;;;;;;5053583;28;20291;-69
2022/02/14 11:01:12;;;;;;;0.10;0.10;;;;;;;;;;5058057;28;20207;-67
2022/02/14 11:03:40;;;;;;;0.57;0.33;;;;;;;;;;5050992;28;20393;-68
2022/02/14 11:06:07;;;;;;;0.30;0.30;;;;;;;;;;5053985;28;20318;-68
2022/02/14 11:08:36;;;;;;;0.87;0.67;;;;;;;;;;5052877;28;20234;-67
2022/02/14 11:11:04;;;;;;;0.40;0.10;;;;;;;;;;5053684;28;20729;-67
2022/02/14 11:13:33;;;;;;;2.70;0.53;;;;;;;;;;5049004;28;20273;-70
2022/02/14 11:16:02;;;;;;;0.00;0.00;;;;;;;;;;5053073;28;20195;-69
2022/02/14 11:18:32;;;;;;;1.67;0.90;;;;;;;;;;5057791;28;20199;-67
2022/02/14 11:21:02;;;;;;;0.77;0.30;;;;;;;;;;5055633;28;20198;-68
2022/02/14 11:23:30;;;;;;;1.77;0.77;;;;;;;;;;5049471;28;20203;-69
2022/02/14 11:26:03;;;;;;;0.23;0.20;;;;;;;;;;5047681;28;20206;-69
2022/02/14 11:28:33;;;;;;;0.73;0.30;;;;;;;;;;5047576;28;20226;-70
2022/02/14 11:31:12;;;;;;;0.93;0.93;;;;;;;;;;5055609;28;20194;-68
2022/02/14 11:33:41;;;;;;;2.23;0.30;;;;;;;;;;5061297;28;20199;-67
2022/02/14 11:36:10;;;;;;;0.47;0.47;;;;;;;;;;5068090;28;20561;-66
2022/02/14 11:38:44;;;;;;;0.50;0.50;;;;;;;;;;5057800;28;20577;-66
2022/02/14 11:41:29;;;;;;;2.67;0.60;;;;;;;;;;5047490;28;20194;-66
2022/02/14 11:43:57;;;;;;;0.67;0.67;;;;;;;;;;5049437;28;20203;-68
2022/02/14 11:46:30;;;;;;;0.17;0.17;;;;;;;;;;5054206;28;20203;-68
2022/02/14 11:49:17;;;;;;;0.30;0.20;;;;;;;;;;5051074;28;20234;-68
2022/02/14 11:51:45;;;;;;;0.33;0.20;;;;;;;;;;5050461;28;20249;-68
2022/02/14 11:54:29;;;;;;;6.00;1.00;;;;;;;;;;5048895;28;20214;-67
2022/02/14 11:56:57;;;;;;;4.27;1.00;;;;;;;;;;5051933;28;20191;-68
2022/02/14 11:59:31;;;;;;;16.57;0.57;;;;;;;;;;5050114;28;20566;-67
2022/02/14 12:02:04;;;;;;;3.67;0.43;;;;;;;;;;5053138;28;20195;-67
2022/02/14 12:04:50;;;;;;;0.23;0.23;;;;;;;;;;5050821;28;20203;-67
2022/02/14 12:07:19;;;;;;;0.50;0.23;;;;;;;;;;5052891;28;20227;-67
2022/02/14 12:10:06;;;;;;;0.50;0.30;;;;;;;;;;5052161;28;20651;-69
2022/02/14 12:12:54;;;;;;;0.67;0.67;;;;;;;;;;5050595;28;20211;-67
2022/02/14 12:21:15;;;;;;;0.27;0.20;;;;;;;;;;5052042;28;20206;-68
2022/02/14 12:23:43;;;;;;;10.40;1.33;;;;;;;;;;5051959;28;20203;-68
2022/02/14 12:26:12;;;;;;;0.37;0.10;;;;;;;;;;5053850;28;20236;-70
2022/02/14 12:28:40;;;;;;;0.43;0.40;;;;;;;;;;5049749;28;20236;-68
2022/02/14 12:31:08;;;;;;;0.97;0.20;;;;;;;;;;5048691;28;20191;-67
2022/02/14 12:33:37;;;;;;;0.60;0.30;;;;;;;;;;5051704;28;20206;-71
2022/02/14 12:36:06;;;;;;;1.60;0.10;;;;;;;;;;5050445;28;20195;-67
2022/02/14 12:38:35;;;;;;;0.10;0.10;;;;;;;;;;5052820;28;20214;-68
2022/02/14 12:41:03;;;;;;;0.20;0.20;;;;;;;;;;5049795;28;20199;-69
2022/02/14 12:43:31;;;;;;;0.40;0.40;;;;;;;;;;5053168;28;20195;-67
2022/02/14 12:45:59;;;;;;;0.00;0.00;;;;;;;;;;5054347;28;20199;-68
2022/02/14 12:48:27;;;;;;;0.00;0.00;;;;;;;;;;5048748;28;20305;-66
2022/02/14 12:50:56;;;;;;;0.00;0.00;;;;;;;;;;5049704;28;20195;-67
2022/02/14 12:53:24;;;;;;;2.87;0.17;;;;;;;;;;5049397;28;20303;-68
2022/02/14 12:55:57;;;;;;;0.00;0.00;;;;;;;;;;5046689;28;20211;-67
2022/02/14 12:58:25;;;;;;;2.57;0.30;;;;;;;;;;5047876;28;20533;-67
2022/02/14 13:00:52;;;;;;;0.03;0.03;;;;;;;;;;5049864;28;20199;-67
2022/02/14 13:03:19;;;;;;;0.07;0.07;;;;;;;;;;5052937;28;20199;-67
2022/02/14 13:05:51;;;;;;;2.30;0.53;;;;;;;;;;5050195;28;20230;-65
2022/02/14 13:08:21;;;;;;;2.27;0.20;;;;;;;;;;5051395;28;20202;-67
2022/02/14 13:10:51;;;;;;;0.73;0.27;;;;;;;;;;5051680;28;20779;-73
2022/02/14 13:13:30;;;;;;;0.20;0.17;;;;;;;;;;5053082;28;20207;-69
2022/02/14 13:15:58;;;;;;;0.57;0.50;;;;;;;;;;5048795;28;20247;-69
2022/02/14 13:18:37;;;;;;;0.43;0.23;;;;;;;;;;5044863;28;20199;-69
2022/02/14 13:21:05;;;;;;;0.60;0.50;;;;;;;;;;5053604;28;20679;-69
2022/02/14 13:23:33;;;;;;;0.00;0.00;;;;;;;;;;5047427;28;20590;-70
2022/02/14 13:26:01;;;;;;;0.00;0.00;;;;;;;;;;5050645;28;21797;-71
2022/02/14 13:28:28;;;;;;;1.40;0.40;;;;;;;;;;5047852;28;21045;-71
2022/02/14 13:30:56;;;;;;;4.23;0.27;;;;;;;;;;5048222;28;20236;-68
2022/02/14 13:33:24;;;;;;;0.00;0.00;;;;;;;;;;5050072;28;20716;-68
2022/02/14 13:35:52;;;;;;;0.40;0.37;;;;;;;;;;5048104;28;20746;-68
2022/02/14 13:38:33;;;;;;;3.87;1.00;;;;;;;;;;5049466;28;20200;-69
2022/02/14 13:41:04;;;;;;;8.73;0.33;;;;;;;;;;5048157;28;21006;-69
2022/02/14 13:43:33;;;;;;;0.10;0.10;;;;;;;;;;5051326;28;20207;-69
2022/02/14 13:46:02;;;;;;;0.33;0.13;;;;;;;;;;5050542;28;20211;-69
2022/02/14 13:48:30;;;;;;;1.03;0.67;;;;;;;;;;5049715;28;20204;-71
2022/02/14 13:50:58;;;;;;;1.47;0.67;;;;;;;;;;5052330;28;20223;-69
2022/02/14 13:53:26;;;;;;;0.60;0.37;;;;;;;;;;5050708;28;20291;-70
2022/02/14 13:56:09;;;;;;;1.80;0.40;;;;;;;;;;5049415;28;20684;-69
2022/02/14 13:58:38;;;;;;;0.53;0.53;;;;;;;;;;5048093;28;20211;-69
2022/02/14 14:01:09;;;;;;;0.00;0.00;;;;;;;;;;5049389;28;20199;-69
2022/02/14 14:03:36;;;;;;;0.10;0.10;;;;;;;;;;5050435;28;20213;-70
2022/02/14 14:06:04;;;;;;;0.50;0.33;;;;;;;;;;5048204;28;20270;-71
2022/02/14 14:08:35;;;;;;;0.00;0.00;;;;;;;;;;5048863;28;20226;-69
2022/02/14 14:11:03;;;;;;;0.27;0.27;;;;;;;;;;5049939;28;20230;-68
2022/02/14 14:13:44;;;;;;;0.00;0.00;;;;;;;;;;5051873;28;20242;-71
2022/02/14 14:16:12;;;;;;;0.00;0.00;;;;;;;;;;5049014;28;20202;-70
2022/02/14 14:18:40;;;;;;;1.30;0.63;;;;;;;;;;5053137;28;20206;-70
2022/02/14 14:21:08;;;;;;;0.80;0.30;;;;;;;;;;5049321;28;20225;-72
2022/02/14 14:23:37;;;;;;;1.30;0.97;;;;;;;;;;5050348;28;20195;-68
2022/02/14 14:26:04;;;;;;;0.00;0.00;;;;;;;;;;5047836;28;20199;-68
2022/02/14 14:28:32;;;;;;;0.00;0.00;;;;;;;;;;5049044;28;20219;-68
2022/02/14 14:31:01;;;;;;;0.60;0.60;;;;;;;;;;5046830;28;20227;-72
2022/02/14 14:33:28;;;;;;;0.00;0.00;;;;;;;;;;5048408;28;20215;-68
2022/02/14 14:35:56;;;;;;;0.00;0.00;;;;;;;;;;5050620;28;20196;-67
2022/02/14 14:38:23;;;;;;;0.00;0.00;;;;;;;;;;5050588;28;20203;-68
2022/02/14 14:40:51;;;;;;;0.50;0.50;;;;;;;;;;5051497;28;20210;-68
2022/02/14 14:43:18;;;;;;;0.00;0.00;;;;;;;;;;5056368;28;20236;-69
2022/02/14 14:45:45;;;;;;;0.00;0.00;;;;;;;;;;5053389;28;20195;-69
2022/02/14 14:48:14;;;;;;;0.10;0.10;;;;;;;;;;5054394;28;20206;-71
2022/02/14 14:50:42;;;;;;;0.20;0.20;;;;;;;;;;5052569;28;20738;-68
2022/02/14 14:53:10;;;;;;;0.10;0.00;;;;;;;;;;5053380;28;20206;-69
2022/02/14 14:55:37;;;;;;;0.00;0.00;;;;;;;;;;5051368;28;20325;-68
2022/02/14 14:58:05;;;;;;;0.37;0.07;;;;;;;;;;5054660;28;20207;-68
2022/02/14 15:00:32;;;;;;;0.00;0.00;;;;;;;;;;5053513;28;20199;-67